Time;durP1;ratioP1;P1;durP2;ratioP2;P2;SDS_P1;SDS_P2;PMS_P1;PMS_P2;Temp;Humidity;BMP_temperature;BMP_pressure;BME280_temperature;BME280_humidity;BME280_pressure;Samples;Min_cycle;Max_cycle;Signal;HPM_P1;HPM_P2
2023/06/19 00:01:41;;;;;;;;;;;22.70;79.10;;;;;;5036315;28;20357;-72
2023/06/19 00:04:06;;;;;;;;;;;22.60;79.40;;;;;;5036181;28;19956;-72
2023/06/19 00:06:32;;;;;;;;;;;22.60;79.80;;;;;;5036867;28;19905;-72
2023/06/19 00:08:57;;;;;;;;;;;22.70;79.70;;;;;;5018405;28;19905;-72
2023/06/19 00:11:23;;;;;;;;;;;22.60;80.20;;;;;;5018385;28;19905;-72
2023/06/19 00:13:49;;;;;;;;;;;22.70;80.70;;;;;;5036198;28;20000;-72
2023/06/19 00:16:15;;;;;;;;;;;22.70;81.00;;;;;;5035996;28;19909;-72
2023/06/19 00:18:41;;;;;;;;;;;;;;;;;;5036007;28;20280;-72
2023/06/19 00:21:07;;;;;;;;;;;22.70;81.10;;;;;;5018312;28;19905;-72
2023/06/19 00:23:33;;;;;;;;;;;22.60;81.80;;;;;;5018222;28;19916;-72
2023/06/19 00:26:00;;;;;;;;;;;22.50;82.90;;;;;;5035878;28;20280;-72
2023/06/19 00:28:27;;;;;;;;;;;22.50;83.20;;;;;;5018115;28;19905;-72
2023/06/19 00:30:52;;;;;;;;;;;22.40;83.30;;;;;;5035721;28;19905;-72
2023/06/19 00:33:17;;;;;;;;;;;22.40;84.40;;;;;;5035698;28;19905;-72
2023/06/19 00:35:43;;;;;;;;;;;22.50;84.60;;;;;;5017993;28;19928;-72
2023/06/19 00:38:09;;;;;;;;;;;22.50;85.00;;;;;;5035704;28;20000;-72
2023/06/19 00:40:34;;;;;;;;;;;22.40;85.60;;;;;;5035422;28;20337;-72
2023/06/19 00:43:00;;;;;;;;;;;22.40;86.10;;;;;;5035535;28;19959;-72
2023/06/19 00:45:25;;;;;;;;;;;22.30;86.70;;;;;;5035497;28;20330;-72
2023/06/19 00:47:52;;;;;;;;;;;22.30;87.20;;;;;;5035487;28;19952;-72
2023/06/19 00:50:17;;;;;;;;;;;22.30;87.70;;;;;;5035174;28;20003;-72
2023/06/19 00:52:43;;;;;;;;;;;22.20;88.40;;;;;;5017596;28;19937;-72
2023/06/19 00:55:09;;;;;;;;;;;22.20;89.00;;;;;;5035289;28;19912;-72
2023/06/19 00:57:35;;;;;;;;;;;22.10;89.50;;;;;;5035188;28;19951;-72
2023/06/19 01:00:04;;;;;;;;;;;22.00;90.00;;;;;;5035201;28;19912;-72
2023/06/19 01:02:30;;;;;;;;;;;21.90;90.40;;;;;;5035795;28;19905;-72
2023/06/19 01:04:56;;;;;;;;;;;21.90;90.90;;;;;;5035100;28;19909;-72
2023/06/19 01:07:41;;;;;;;;;;;21.80;91.40;;;;;;5035133;28;20379;-72
2023/06/19 01:10:11;;;;;;;;;;;21.70;91.80;;;;;;5017733;28;20269;-72
2023/06/19 01:12:44;;;;;;;;;;;21.70;92.40;;;;;;5035058;28;19951;-72
2023/06/19 01:15:10;;;;;;;;;;;21.60;92.80;;;;;;5034893;28;19905;-72
2023/06/19 01:17:36;;;;;;;;;;;21.50;93.50;;;;;;5035042;28;19909;-72
2023/06/19 01:20:06;;;;;;;;;;;21.50;93.80;;;;;;5017046;28;20421;-72
2023/06/19 01:22:32;;;;;;;;;;;21.50;94.40;;;;;;5017107;28;19905;-72
2023/06/19 01:24:57;;;;;;;;;;;21.30;95.10;;;;;;5034786;28;19927;-72
2023/06/19 01:27:25;;;;;;;;;;;21.20;95.90;;;;;;5034643;28;19905;-72
2023/06/19 01:29:51;;;;;;;;;;;21.20;96.60;;;;;;5034618;28;19905;-72
2023/06/19 01:32:22;;;;;;;;;;;21.10;97.40;;;;;;5034554;28;19912;-72
2023/06/19 01:34:49;;;;;;;;;;;21.00;98.00;;;;;;5034532;28;19905;-72
2023/06/19 01:37:15;;;;;;;;;;;21.00;98.70;;;;;;5016814;28;19912;-72
2023/06/19 01:39:41;;;;;;;;;;;21.00;99.30;;;;;;5016599;28;19995;-72
2023/06/19 01:42:09;;;;;;;;;;;21.00;99.90;;;;;;5035002;28;19947;-72
2023/06/19 01:44:35;;;;;;;;;;;20.90;99.90;;;;;;5034332;28;19913;-72
2023/06/19 01:47:07;;;;;;;;;;;20.90;99.90;;;;;;5034288;28;19905;-72
2023/06/19 01:49:32;;;;;;;;;;;20.90;99.90;;;;;;5016592;28;20046;-72
2023/06/19 01:52:00;;;;;;;;;;;20.90;99.90;;;;;;5034309;28;19951;-72
2023/06/19 01:54:26;;;;;;;;;;;20.90;99.90;;;;;;5016562;28;20383;-72
2023/06/19 01:56:51;;;;;;;;;;;20.90;99.90;;;;;;5034197;28;19906;-72
2023/06/19 01:59:17;;;;;;;;;;;20.90;99.90;;;;;;5034065;28;19962;-72
2023/06/19 02:01:42;;;;;;;;;;;20.90;99.90;;;;;;5033500;28;19909;-72
2023/06/19 02:04:08;;;;;;;;;;;21.00;99.90;;;;;;5033981;28;19935;-72
2023/06/19 02:06:34;;;;;;;;;;;20.90;99.90;;;;;;5034060;28;19944;-72
2023/06/19 02:08:59;;;;;;;;;;;20.90;99.90;;;;;;5034005;28;19905;-72
2023/06/19 02:11:25;;;;;;;;;;;20.90;99.90;;;;;;5033948;28;19908;-72
2023/06/19 02:13:50;;;;;;;;;;;20.80;99.90;;;;;;5033971;28;19944;-72
2023/06/19 02:16:16;;;;;;;;;;;20.80;99.90;;;;;;5033837;28;19948;-72
2023/06/19 02:18:41;;;;;;;;;;;20.80;99.90;;;;;;5033806;28;20349;-72
2023/06/19 02:21:07;;;;;;;;;;;20.70;99.90;;;;;;5033890;28;19912;-72
2023/06/19 02:23:33;;;;;;;;;;;20.70;99.90;;;;;;5033768;28;19999;-72
2023/06/19 02:25:58;;;;;;;;;;;20.70;99.90;;;;;;5016113;28;19944;-72
2023/06/19 02:28:24;;;;;;;;;;;20.70;99.90;;;;;;5034261;28;19905;-72
2023/06/19 02:30:49;;;;;;;;;;;20.70;99.90;;;;;;5015924;28;19905;-72
2023/06/19 02:33:14;;;;;;;;;;;20.80;99.90;;;;;;5015958;28;19909;-72
2023/06/19 02:35:41;;;;;;;;;;;20.70;99.90;;;;;;5033618;28;19905;-72
2023/06/19 02:38:07;;;;;;;;;;;20.80;99.90;;;;;;5033524;28;19905;-72
2023/06/19 02:40:32;;;;;;;;;;;20.70;99.90;;;;;;5033478;28;19936;-72
2023/06/19 02:42:58;;;;;;;;;;;20.70;99.90;;;;;;5015790;28;19909;-72
2023/06/19 02:45:23;;;;;;;;;;;20.70;99.90;;;;;;5015788;28;19944;-72
2023/06/19 02:47:50;;;;;;;;;;;20.70;99.90;;;;;;5034576;28;19912;-72
2023/06/19 02:50:15;;;;;;;;;;;20.70;99.90;;;;;;5033977;28;20348;-72
2023/06/19 02:52:40;;;;;;;;;;;20.70;99.90;;;;;;5033495;28;19905;-72
2023/06/19 02:55:07;;;;;;;;;;;20.70;99.90;;;;;;5033481;28;19992;-72
2023/06/19 02:57:33;;;;;;;;;;;20.70;99.90;;;;;;5033445;28;19996;-72
2023/06/19 02:59:58;;;;;;;;;;;20.70;99.90;;;;;;5033342;28;19912;-72
2023/06/19 03:02:23;;;;;;;;;;;20.60;99.90;;;;;;5015681;28;19905;-72
2023/06/19 03:04:50;;;;;;;;;;;20.60;99.90;;;;;;5033220;28;19909;-72
2023/06/19 03:07:16;;;;;;;;;;;20.60;99.90;;;;;;5033955;28;19909;-72
2023/06/19 03:09:42;;;;;;;;;;;20.60;99.90;;;;;;5033546;28;20438;-72
2023/06/19 03:12:07;;;;;;;;;;;20.70;99.90;;;;;;5033337;28;19905;-72
2023/06/19 03:14:33;;;;;;;;;;;20.60;99.90;;;;;;5037281;28;20364;-72
2023/06/19 03:16:58;;;;;;;;;;;20.60;99.90;;;;;;5037495;28;19959;-72
2023/06/19 03:19:24;;;;;;;;;;;20.60;99.90;;;;;;5037467;28;19996;-72
2023/06/19 03:21:49;;;;;;;;;;;20.60;99.90;;;;;;5037210;28;19905;-72
2023/06/19 03:24:15;;;;;;;;;;;20.60;99.90;;;;;;5037013;28;19912;-72
2023/06/19 03:26:40;;;;;;;;;;;20.50;99.90;;;;;;5037015;28;19912;-72
2023/06/19 03:29:06;;;;;;;;;;;20.40;99.90;;;;;;5036909;28;19955;-72
2023/06/19 03:31:31;;;;;;;;;;;20.50;99.90;;;;;;5019158;28;19928;-72
2023/06/19 03:33:56;;;;;;;;;;;20.40;99.90;;;;;;5019101;28;19905;-72
2023/06/19 03:36:22;;;;;;;;;;;20.50;99.90;;;;;;5036918;28;19905;-72
2023/06/19 03:38:48;;;;;;;;;;;20.40;99.90;;;;;;5018899;28;19979;-72
2023/06/19 03:41:14;;;;;;;;;;;20.30;99.90;;;;;;5036795;28;20380;-72
2023/06/19 03:43:39;;;;;;;;;;;20.30;99.90;;;;;;5018933;28;19960;-72
2023/06/19 03:46:05;;;;;;;;;;;20.30;99.90;;;;;;5036764;28;19912;-72
2023/06/19 03:48:30;;;;;;;;;;;20.30;99.90;;;;;;5036689;28;19952;-72
2023/06/19 03:50:56;;;;;;;;;;;20.20;99.90;;;;;;5036591;28;20364;-72
2023/06/19 03:53:22;;;;;;;;;;;20.30;99.90;;;;;;5018800;28;20365;-72
2023/06/19 03:55:47;;;;;;;;;;;20.20;99.90;;;;;;5018806;28;19959;-72
2023/06/19 03:58:12;;;;;;;;;;;20.20;99.90;;;;;;5036422;28;19906;-72
2023/06/19 04:00:38;;;;;;;;;;;20.20;99.90;;;;;;5036324;28;20322;-72
2023/06/19 04:03:03;;;;;;;;;;;20.10;99.90;;;;;;5036292;28;20073;-72
2023/06/19 04:05:29;;;;;;;;;;;20.10;99.90;;;;;;5018557;28;20352;-72
2023/06/19 04:07:54;;;;;;;;;;;20.00;99.90;;;;;;5036740;28;19909;-72
2023/06/19 04:10:20;;;;;;;;;;;20.00;99.90;;;;;;5018510;28;19908;-72
2023/06/19 04:12:47;;;;;;;;;;;20.00;99.90;;;;;;5036238;28;20284;-72
2023/06/19 04:15:13;;;;;;;;;;;20.00;99.90;;;;;;5036119;28;19905;-72
2023/06/19 04:17:38;;;;;;;;;;;20.00;99.90;;;;;;5036046;28;20353;-72
2023/06/19 04:20:10;;;;;;;;;;;19.90;99.90;;;;;;5035940;28;19905;-72
2023/06/19 04:22:39;;;;;;;;;;;19.90;99.90;;;;;;5036003;28;19909;-72
2023/06/19 04:25:06;;;;;;;;;;;19.90;99.90;;;;;;5035325;28;20138;-72
2023/06/19 04:27:31;;;;;;;;;;;19.90;99.90;;;;;;5035930;28;19905;-72
2023/06/19 04:29:57;;;;;;;;;;;19.90;99.90;;;;;;5035851;28;19905;-72
2023/06/19 04:32:22;;;;;;;;;;;19.90;99.90;;;;;;5035843;28;20356;-72
2023/06/19 04:34:48;;;;;;;;;;;19.80;99.90;;;;;;5035767;28;19908;-71
2023/06/19 04:37:13;;;;;;;;;;;19.80;99.90;;;;;;5035750;28;19948;-72
2023/06/19 04:39:39;;;;;;;;;;;19.70;99.90;;;;;;5035503;28;19917;-72
2023/06/19 04:42:04;;;;;;;;;;;19.70;99.90;;;;;;5035636;28;19912;-72
2023/06/19 04:44:33;;;;;;;;;;;19.70;99.90;;;;;;5017731;28;19959;-72
2023/06/19 04:47:00;;;;;;;;;;;19.70;99.90;;;;;;5035608;28;19912;-72
2023/06/19 04:49:32;;;;;;;;;;;19.60;99.90;;;;;;5035498;28;19908;-72
2023/06/19 04:51:57;;;;;;;;;;;19.60;99.90;;;;;;5018013;28;19905;-72
2023/06/19 04:54:23;;;;;;;;;;;19.50;99.90;;;;;;5035375;28;19905;-72
2023/06/19 04:56:48;;;;;;;;;;;19.50;99.90;;;;;;5035946;28;19905;-72
2023/06/19 04:59:17;;;;;;;;;;;19.60;99.90;;;;;;5035549;28;19905;-72
2023/06/19 05:01:43;;;;;;;;;;;19.50;99.90;;;;;;5035244;28;19909;-72
2023/06/19 05:04:10;;;;;;;;;;;19.50;99.90;;;;;;5035134;28;19959;-72
2023/06/19 05:06:36;;;;;;;;;;;19.50;99.90;;;;;;5035262;28;19912;-72
2023/06/19 05:09:02;;;;;;;;;;;19.60;99.90;;;;;;5035656;28;19949;-72
2023/06/19 05:11:27;;;;;;;;;;;19.60;99.90;;;;;;5017292;28;20018;-72
2023/06/19 05:13:53;;;;;;;;;;;19.80;99.90;;;;;;5035096;28;19905;-72
2023/06/19 05:16:19;;;;;;;;;;;20.00;99.90;;;;;;5035292;28;19905;-72
2023/06/19 05:18:45;;;;;;;;;;;19.70;99.90;;;;;;5017221;28;19905;-72
2023/06/19 05:21:11;;;;;;;;;;;19.70;99.90;;;;;;5034929;28;19963;-72
2023/06/19 05:23:38;;;;;;;;;;;19.70;99.90;;;;;;5017003;28;20410;-71
2023/06/19 05:26:03;;;;;;;;;;;19.70;99.90;;;;;;5034809;28;19948;-72
2023/06/19 05:28:29;;;;;;;;;;;19.80;99.90;;;;;;5016909;28;19905;-72
2023/06/19 05:30:54;;;;;;;;;;;19.90;99.90;;;;;;5017402;28;20363;-72
2023/06/19 05:33:20;;;;;;;;;;;20.00;99.90;;;;;;5034684;28;19909;-72
2023/06/19 05:35:52;;;;;;;;;;;20.10;99.90;;;;;;5033986;28;19916;-72
2023/06/19 05:38:17;;;;;;;;;;;20.10;99.90;;;;;;5034237;28;20395;-72
2023/06/19 05:40:43;;;;;;;;;;;20.10;99.90;;;;;;5034341;28;19913;-73
2023/06/19 05:43:08;;;;;;;;;;;20.10;99.90;;;;;;5034363;28;20376;-72
2023/06/19 05:45:34;;;;;;;;;;;20.10;99.90;;;;;;5016703;28;19905;-72
2023/06/19 05:47:59;;;;;;;;;;;20.10;99.90;;;;;;5034491;28;20386;-72
2023/06/19 05:50:25;;;;;;;;;;;20.10;99.90;;;;;;5034321;28;20029;-72
2023/06/19 05:52:50;;;;;;;;;;;20.20;99.90;;;;;;5034193;28;19905;-72
2023/06/19 05:55:16;;;;;;;;;;;20.30;99.90;;;;;;5034276;28;19905;-72
2023/06/19 05:57:42;;;;;;;;;;;20.40;99.90;;;;;;5034106;28;19905;-73
2023/06/19 06:00:10;;;;;;;;;;;20.40;99.90;;;;;;5034072;28;19952;-73
2023/06/19 06:02:36;;;;;;;;;;;20.40;99.90;;;;;;5034705;28;19936;-73
2023/06/19 06:05:01;;;;;;;;;;;20.50;99.90;;;;;;5033968;28;20347;-73
2023/06/19 06:07:28;;;;;;;;;;;20.50;99.90;;;;;;5033488;28;19956;-73
2023/06/19 06:09:54;;;;;;;;;;;20.60;99.90;;;;;;5033834;28;19909;-72
2023/06/19 06:12:19;;;;;;;;;;;20.50;99.90;;;;;;5033968;28;19954;-72
2023/06/19 06:14:45;;;;;;;;;;;20.50;99.90;;;;;;5033786;28;20360;-72
2023/06/19 06:17:10;;;;;;;;;;;20.40;99.90;;;;;;5033981;28;20257;-72
2023/06/19 06:19:36;;;;;;;;;;;20.20;99.90;;;;;;5016079;28;19905;-72
2023/06/19 06:22:02;;;;;;;;;;;20.20;99.90;;;;;;5033821;28;19905;-72
2023/06/19 06:24:28;;;;;;;;;;;20.20;99.90;;;;;;5032363;28;19984;-72
2023/06/19 06:26:53;;;;;;;;;;;20.10;99.90;;;;;;5033844;28;19912;-72
2023/06/19 06:29:21;;;;;;;;;;;20.10;99.90;;;;;;5033662;28;19909;-72
2023/06/19 06:31:53;;;;;;;;;;;20.00;99.90;;;;;;5034292;28;19998;-72
2023/06/19 06:34:19;;;;;;;;;;;20.00;99.90;;;;;;5034305;28;19959;-72
2023/06/19 06:36:45;;;;;;;;;;;20.10;99.90;;;;;;5033664;28;19909;-72
2023/06/19 06:39:10;;;;;;;;;;;20.20;99.90;;;;;;5033498;28;20380;-72
2023/06/19 06:41:36;;;;;;;;;;;20.20;99.90;;;;;;5033743;28;19905;-72
2023/06/19 06:44:02;;;;;;;;;;;20.20;99.90;;;;;;5033482;28;20022;-72
2023/06/19 06:46:28;;;;;;;;;;;20.20;99.90;;;;;;5033662;28;20288;-72
2023/06/19 06:48:53;;;;;;;;;;;20.10;99.90;;;;;;5038908;28;19905;-72
2023/06/19 06:51:19;;;;;;;;;;;20.10;99.90;;;;;;5040705;28;19905;-72
2023/06/19 06:53:44;;;;;;;;;;;20.00;99.90;;;;;;5040099;28;19909;-72
2023/06/19 06:56:10;;;;;;;;;;;20.10;99.90;;;;;;5040120;28;19909;-72
2023/06/19 06:58:36;;;;;;;;;;;20.40;99.90;;;;;;5040037;28;20288;-72
2023/06/19 07:01:02;;;;;;;;;;;20.60;99.90;;;;;;5039972;28;19909;-72
2023/06/19 07:03:29;;;;;;;;;;;20.90;99.90;;;;;;5040486;28;19962;-72
2023/06/19 07:05:55;;;;;;;;;;;21.00;99.90;;;;;;5022258;28;19913;-72
2023/06/19 07:08:20;;;;;;;;;;;21.00;99.90;;;;;;5039940;28;19972;-72
2023/06/19 07:10:46;;;;;;;;;;;21.00;99.90;;;;;;5039911;28;19944;-72
2023/06/19 07:13:11;;;;;;;;;;;20.90;99.90;;;;;;5022171;28;20356;-72
2023/06/19 07:15:37;;;;;;;;;;;21.00;99.90;;;;;;5022012;28;19943;-72
2023/06/19 07:18:02;;;;;;;;;;;21.00;99.90;;;;;;5040022;28;20353;-72
2023/06/19 07:20:28;;;;;;;;;;;21.00;99.90;;;;;;5040293;28;20361;-76
2023/06/19 07:22:54;;;;;;;;;;;21.10;99.90;;;;;;5040077;28;19905;-76
2023/06/19 07:25:19;;;;;;;;;;;21.00;99.90;;;;;;5022529;28;19905;-76
2023/06/19 07:27:45;;;;;;;;;;;21.00;99.90;;;;;;5040201;28;19909;-76
2023/06/19 07:30:10;;;;;;;;;;;20.80;99.90;;;;;;5039957;28;19905;-76
2023/06/19 07:32:36;;;;;;;;;;;21.00;99.90;;;;;;5040008;28;20000;-76
2023/06/19 07:35:02;;;;;;;;;;;21.20;99.90;;;;;;5040110;28;19905;-78
2023/06/19 07:37:27;;;;;;;;;;;21.40;99.90;;;;;;5040368;28;19912;-77
2023/06/19 07:39:53;;;;;;;;;;;21.50;99.90;;;;;;5022191;28;19936;-76
2023/06/19 07:42:18;;;;;;;;;;;21.40;99.90;;;;;;5040317;28;19962;-76
2023/06/19 07:44:44;;;;;;;;;;;21.60;99.90;;;;;;5040286;28;19909;-77
2023/06/19 07:47:10;;;;;;;;;;;21.70;99.90;;;;;;5040202;28;20000;-77
2023/06/19 07:49:36;;;;;;;;;;;21.70;99.90;;;;;;5040588;28;19944;-76
2023/06/19 07:52:04;;;;;;;;;;;21.60;99.90;;;;;;5039937;28;20372;-76
2023/06/19 07:54:30;;;;;;;;;;;21.60;99.90;;;;;;5040310;28;19905;-76
2023/06/19 07:56:55;;;;;;;;;;;21.50;99.90;;;;;;5039897;28;19916;-76
2023/06/19 07:59:22;;;;;;;;;;;21.30;99.90;;;;;;5037530;28;20004;-76
2023/06/19 08:01:48;;;;;;;;;;;21.20;99.90;;;;;;5036991;28;20422;-76
2023/06/19 08:04:14;;;;;;;;;;;21.10;99.90;;;;;;5036636;28;19909;-76
2023/06/19 08:06:39;;;;;;;;;;;21.20;99.90;;;;;;5018982;28;20383;-76
2023/06/19 08:09:05;;;;;;;;;;;21.30;99.90;;;;;;5036733;28;19905;-77
2023/06/19 08:11:30;;;;;;;;;;;21.50;99.90;;;;;;5036758;28;19905;-77
2023/06/19 08:13:56;;;;;;;;;;;21.60;99.90;;;;;;5036993;28;19905;-77
2023/06/19 08:16:21;;;;;;;;;;;21.80;99.90;;;;;;5036962;28;19959;-77
2023/06/19 08:18:47;;;;;;;;;;;21.90;99.90;;;;;;5037143;28;19959;-75
2023/06/19 08:21:13;;;;;;;;;;;22.00;99.90;;;;;;5036097;28;20399;-74
2023/06/19 08:23:39;;;;;;;;;;;22.10;99.90;;;;;;5036079;28;20361;-73
2023/06/19 08:26:05;;;;;;;;;;;22.00;99.90;;;;;;5036172;28;19988;-72
2023/06/19 08:28:34;;;;;;;;;;;21.90;99.90;;;;;;5036480;28;20360;-72
2023/06/19 08:30:59;;;;;;;;;;;21.70;99.90;;;;;;5018152;28;19905;-72
2023/06/19 08:33:25;;;;;;;;;;;21.80;99.90;;;;;;5035807;28;20387;-72
2023/06/19 08:35:50;;;;;;;;;;;21.80;99.90;;;;;;5035811;28;20365;-72
2023/06/19 08:38:16;;;;;;;;;;;22.00;99.90;;;;;;5035787;28;19905;-72
2023/06/19 08:40:42;;;;;;;;;;;21.90;99.90;;;;;;5035567;28;20280;-74
2023/06/19 08:43:07;;;;;;;;;;;21.90;99.90;;;;;;5035607;28;19916;-74
2023/06/19 08:45:33;;;;;;;;;;;21.90;99.90;;;;;;5017893;28;19912;-76
2023/06/19 08:47:58;;;;;;;;;;;21.90;99.90;;;;;;5036043;28;19912;-76
2023/06/19 08:50:24;;;;;;;;;;;22.00;99.90;;;;;;5017825;28;19904;-76
2023/06/19 08:52:50;;;;;;;;;;;22.00;99.90;;;;;;5017893;28;19905;-76
2023/06/19 08:55:15;;;;;;;;;;;22.10;99.90;;;;;;5017817;28;20388;-76
2023/06/19 08:57:41;;;;;;;;;;;22.20;99.90;;;;;;5036137;28;20265;-76
2023/06/19 09:00:12;;;;;;;;;;;22.50;99.90;;;;;;5035365;28;20411;-76
2023/06/19 09:02:41;;;;;;;;;;;22.70;99.90;;;;;;5036467;28;20352;-75
2023/06/19 09:05:11;;;;;;;;;;;22.50;99.90;;;;;;5035676;28;19915;-76
2023/06/19 09:07:36;;;;;;;;;;;22.50;99.90;;;;;;5018578;28;20387;-76
2023/06/19 09:10:11;;;;;;;;;;;22.40;99.90;;;;;;5035509;28;19905;-76
2023/06/19 09:12:37;;;;;;;;;;;22.50;99.90;;;;;;5035875;28;19905;-76
2023/06/19 09:15:10;;;;;;;;;;;22.40;99.90;;;;;;5035522;28;19905;-75
2023/06/19 09:17:36;;;;;;;;;;;22.30;99.90;;;;;;5017424;28;19909;-76
2023/06/19 09:20:04;;;;;;;;;;;22.50;99.90;;;;;;5034987;28;20250;-76
2023/06/19 09:22:30;;;;;;;;;;;22.60;99.90;;;;;;5017186;28;20364;-76
2023/06/19 09:24:59;;;;;;;;;;;22.50;99.90;;;;;;5035642;28;19919;-76
2023/06/19 09:27:25;;;;;;;;;;;22.50;99.90;;;;;;5035447;28;20003;-76
2023/06/19 09:29:50;;;;;;;;;;;22.30;99.90;;;;;;5034777;28;20375;-76
2023/06/19 09:32:28;;;;;;;;;;;22.50;99.90;;;;;;5017291;28;19906;-76
2023/06/19 09:34:58;;;;;;;;;;;22.40;99.90;;;;;;5034868;28;19905;-76
2023/06/19 09:37:25;;;;;;;;;;;22.50;99.90;;;;;;5034860;28;19912;-75
2023/06/19 09:39:54;;;;;;;;;;;22.40;99.90;;;;;;5017034;28;19913;-76
2023/06/19 09:42:34;;;;;;;;;;;22.40;99.90;;;;;;5034650;28;20008;-76
2023/06/19 09:45:01;;;;;;;;;;;22.40;99.90;;;;;;5034968;28;19916;-76
2023/06/19 09:47:29;;;;;;;;;;;22.60;99.90;;;;;;5034601;28;19909;-76
2023/06/19 09:49:55;;;;;;;;;;;22.80;99.90;;;;;;5016892;28;19905;-76
2023/06/19 09:52:24;;;;;;;;;;;22.80;99.90;;;;;;5034406;28;20357;-76
2023/06/19 09:54:50;;;;;;;;;;;22.90;99.90;;;;;;5034577;28;19928;-76
2023/06/19 09:57:16;;;;;;;;;;;22.80;99.90;;;;;;5034255;28;19916;-76
2023/06/19 09:59:42;;;;;;;;;;;22.70;99.90;;;;;;5034208;28;19905;-76
2023/06/19 10:02:08;;;;;;;;;;;22.90;99.90;;;;;;5034338;28;20004;-76
2023/06/19 10:04:45;;;;;;;;;;;23.00;99.90;;;;;;5034261;28;20368;-76
2023/06/19 10:07:17;;;;;;;;;;;22.90;99.90;;;;;;5034487;28;19905;-76
2023/06/19 10:09:54;;;;;;;;;;;23.00;99.90;;;;;;5034029;28;19999;-76
2023/06/19 10:12:20;;;;;;;;;;;23.10;99.90;;;;;;5034042;28;19905;-76
2023/06/19 10:14:49;;;;;;;;;;;23.30;99.90;;;;;;5016366;28;19915;-76
2023/06/19 10:17:16;;;;;;;;;;;23.40;99.90;;;;;;5016565;28;19936;-76
2023/06/19 10:19:49;;;;;;;;;;;23.80;99.90;;;;;;5033821;28;19905;-76
2023/06/19 10:22:19;;;;;;;;;;;23.90;99.90;;;;;;5033382;28;19966;-76
2023/06/19 10:24:49;;;;;;;;;;;24.10;99.90;;;;;;5033807;28;20280;-76
2023/06/19 10:27:20;;;;;;;;;;;24.10;99.90;;;;;;5034086;28;19909;-76
2023/06/19 10:29:51;;;;;;;;;;;24.20;99.90;;;;;;5033903;28;20368;-77
2023/06/19 10:32:16;;;;;;;;;;;24.30;99.90;;;;;;5033923;28;19912;-76
2023/06/19 10:34:45;;;;;;;;;;;24.40;99.90;;;;;;5033991;28;19905;-76
2023/06/19 10:37:10;;;;;;;;;;;24.80;99.50;;;;;;5033828;28;20395;-77
2023/06/19 10:39:35;;;;;;;;;;;24.90;99.40;;;;;;5033948;28;19917;-77
2023/06/19 10:42:04;;;;;;;;;;;25.00;99.50;;;;;;5016042;28;19905;-77
2023/06/19 10:44:30;;;;;;;;;;;25.00;98.10;;;;;;5033640;28;19909;-78
2023/06/19 10:46:55;;;;;;;;;;;24.90;98.30;;;;;;5033627;28;20360;-77
2023/06/19 10:49:21;;;;;;;;;;;25.00;98.90;;;;;;5033487;28;19909;-77
2023/06/19 10:51:48;;;;;;;;;;;25.40;98.50;;;;;;5033545;28;19955;-77
2023/06/19 10:54:13;;;;;;;;;;;25.80;97.50;;;;;;5034004;28;19905;-77
2023/06/19 10:56:39;;;;;;;;;;;25.80;96.50;;;;;;5016032;28;20004;-77
2023/06/19 10:59:09;;;;;;;;;;;25.50;96.50;;;;;;5033599;28;19905;-76
2023/06/19 11:01:38;;;;;;;;;;;25.50;96.20;;;;;;5033558;28;19905;-76
2023/06/19 11:04:08;;;;;;;;;;;25.50;95.70;;;;;;5015827;28;19952;-76
2023/06/19 11:06:34;;;;;;;;;;;25.90;95.70;;;;;;5015757;28;20373;-77
2023/06/19 11:09:00;;;;;;;;;;;26.10;95.40;;;;;;5033439;28;19912;-78
2023/06/19 11:11:59;;;;;;;;;;;26.20;95.40;;;;;;5034062;28;19999;-77
2023/06/19 11:14:28;;;;;;;;;;;26.40;94.50;;;;;;4979965;28;19955;-76
2023/06/19 11:16:54;;;;;;;;;;;26.20;93.20;;;;;;5034113;28;19912;-77
2023/06/19 11:19:21;;;;;;;;;;;26.10;93.70;;;;;;5033425;28;19905;-76
2023/06/19 11:21:48;;;;;;;;;;;26.10;93.50;;;;;;5033567;28;19963;-73
2023/06/19 11:24:15;;;;;;;;;;;26.00;94.00;;;;;;5033426;28;19960;-73
2023/06/19 11:26:43;;;;;;;;;;;25.90;94.10;;;;;;5033339;28;19956;-73
2023/06/19 11:29:16;;;;;;;;;;;25.60;93.80;;;;;;5033726;28;19909;-73
2023/06/19 11:31:42;;;;;;;;;;;25.50;94.50;;;;;;5033157;28;19996;-73
2023/06/19 11:34:07;;;;;;;;;;;25.60;94.30;;;;;;5033270;28;19951;-74
2023/06/19 11:36:36;;;;;;;;;;;26.00;94.40;;;;;;5037629;28;19932;-73
2023/06/19 11:39:04;;;;;;;;;;;26.30;94.10;;;;;;5036782;28;19931;-73
2023/06/19 11:41:30;;;;;;;;;;;26.40;93.00;;;;;;5037534;28;19909;-73
2023/06/19 11:43:59;;;;;;;;;;;26.60;92.90;;;;;;5036780;28;19913;-73
2023/06/19 11:46:29;;;;;;;;;;;26.50;92.00;;;;;;5037395;28;19909;-73
2023/06/19 11:48:55;;;;;;;;;;;26.70;91.30;;;;;;5018979;28;19999;-73
2023/06/19 11:51:21;;;;;;;;;;;26.70;91.70;;;;;;5019017;28;19954;-73
2023/06/19 11:53:46;;;;;;;;;;;26.90;91.20;;;;;;5019003;28;20379;-73
2023/06/19 11:56:12;;;;;;;;;;;27.00;92.00;;;;;;5036530;28;19928;-73
2023/06/19 11:58:37;;;;;;;;;;;26.90;91.80;;;;;;5036571;28;19905;-73
2023/06/19 12:01:02;;;;;;;;;;;27.50;89.60;;;;;;5036370;28;19955;-73
2023/06/19 12:03:28;;;;;;;;;;;28.10;90.90;;;;;;5036443;28;19932;-75
2023/06/19 12:05:53;;;;;;;;;;;28.30;87.50;;;;;;5018607;28;19905;-75
2023/06/19 12:08:19;;;;;;;;;;;28.70;86.50;;;;;;5018601;28;19905;-75
2023/06/19 12:10:44;;;;;;;;;;;28.30;85.20;;;;;;5018484;28;19912;-75
2023/06/19 12:13:10;;;;;;;;;;;28.40;85.50;;;;;;5018476;28;19905;-75
2023/06/19 12:15:35;;;;;;;;;;;28.60;84.70;;;;;;5036212;28;20280;-75
2023/06/19 12:18:01;;;;;;;;;;;28.70;82.80;;;;;;5036365;28;19954;-76
2023/06/19 12:20:26;;;;;;;;;;;29.10;82.60;;;;;;5036083;28;19940;-76
2023/06/19 12:22:52;;;;;;;;;;;28.60;83.60;;;;;;5018286;28;19913;-76
2023/06/19 12:25:17;;;;;;;;;;;28.40;83.00;;;;;;5035968;28;19916;-76
2023/06/19 12:27:43;;;;;;;;;;;28.80;84.60;;;;;;5036018;28;19905;-75
2023/06/19 12:30:09;;;;;;;;;;;29.10;79.80;;;;;;5035890;28;19905;-75
2023/06/19 12:32:37;;;;;;;;;;;29.00;79.80;;;;;;5036483;28;20375;-75
2023/06/19 12:35:03;;;;;;;;;;;28.80;79.50;;;;;;5035777;28;20272;-76
2023/06/19 12:37:29;;;;;;;;;;;28.70;81.30;;;;;;5018081;28;20364;-75
2023/06/19 12:39:54;;;;;;;;;;;28.70;80.60;;;;;;5035628;28;19944;-75
2023/06/19 12:42:20;;;;;;;;;;;28.50;81.00;;;;;;5035713;28;19991;-76
2023/06/19 12:44:45;;;;;;;;;;;28.40;80.40;;;;;;5035578;28;19963;-76
2023/06/19 12:47:11;;;;;;;;;;;28.10;82.40;;;;;;5035230;28;19937;-76
2023/06/19 12:49:37;;;;;;;;;;;28.50;81.30;;;;;;5035638;28;20249;-75
2023/06/19 12:52:02;;;;;;;;;;;28.70;79.30;;;;;;5035470;28;20258;-75
2023/06/19 12:54:28;;;;;;;;;;;28.60;79.40;;;;;;5017714;28;19912;-75
2023/06/19 12:56:54;;;;;;;;;;;28.10;77.40;;;;;;5017740;28;20277;-75
2023/06/19 12:59:19;;;;;;;;;;;28.10;78.10;;;;;;5035281;28;20004;-75
2023/06/19 13:01:45;;;;;;;;;;;28.70;78.70;;;;;;5017690;28;19912;-76
2023/06/19 13:04:11;;;;;;;;;;;29.10;77.80;;;;;;5035202;28;19909;-75
2023/06/19 13:06:36;;;;;;;;;;;29.40;75.50;;;;;;5035293;28;19905;-75
2023/06/19 13:09:02;;;;;;;;;;;29.90;74.00;;;;;;5017382;28;20354;-75
2023/06/19 13:11:29;;;;;;;;;;;30.20;74.00;;;;;;5017417;28;19905;-75
2023/06/19 13:13:54;;;;;;;;;;;30.20;70.70;;;;;;5035211;28;20276;-76
2023/06/19 13:16:20;;;;;;;;;;;30.10;70.30;;;;;;5035220;28;19905;-75
2023/06/19 13:18:46;;;;;;;;;;;30.00;71.50;;;;;;5017161;28;19915;-76
2023/06/19 13:21:11;;;;;;;;;;;30.00;69.90;;;;;;5035325;28;19904;-76
2023/06/19 13:23:37;;;;;;;;;;;30.10;71.40;;;;;;5034901;28;20035;-75
2023/06/19 13:26:02;;;;;;;;;;;30.40;73.20;;;;;;5034926;28;19971;-76
2023/06/19 13:28:28;;;;;;;;;;;30.70;70.20;;;;;;5034745;28;19905;-75
2023/06/19 13:30:54;;;;;;;;;;;31.00;70.20;;;;;;5034717;28;19905;-75
2023/06/19 13:33:19;;;;;;;;;;;31.10;68.10;;;;;;5034899;28;19912;-76
2023/06/19 13:35:45;;;;;;;;;;;30.80;67.70;;;;;;5034724;28;20430;-76
2023/06/19 13:38:10;;;;;;;;;;;30.50;68.20;;;;;;5034585;28;20383;-76
2023/06/19 13:40:36;;;;;;;;;;;30.70;69.20;;;;;;5016838;28;20004;-75
2023/06/19 13:43:03;;;;;;;;;;;30.90;67.60;;;;;;5034505;28;19905;-76
2023/06/19 13:45:29;;;;;;;;;;;30.80;67.40;;;;;;5034517;28;19927;-75
2023/06/19 13:47:54;;;;;;;;;;;30.80;67.50;;;;;;5034366;28;20004;-75
2023/06/19 13:50:20;;;;;;;;;;;31.00;66.70;;;;;;5034382;28;19905;-75
2023/06/19 13:52:48;;;;;;;;;;;30.90;66.60;;;;;;5034414;28;20347;-76
2023/06/19 13:55:17;;;;;;;;;;;30.80;67.40;;;;;;5034315;28;19948;-76
2023/06/19 13:57:43;;;;;;;;;;;31.40;67.50;;;;;;5034113;28;20399;-76
2023/06/19 14:00:10;;;;;;;;;;;31.80;65.70;;;;;;5034149;28;19909;-78
2023/06/19 14:02:36;;;;;;;;;;;32.20;65.20;;;;;;5034644;28;19915;-76
2023/06/19 14:05:02;;;;;;;;;;;31.60;64.30;;;;;;5034132;28;19996;-76
2023/06/19 14:07:27;;;;;;;;;;;31.80;64.10;;;;;;5016489;28;19948;-75
2023/06/19 14:09:54;;;;;;;;;;;31.60;62.50;;;;;;5034299;28;19951;-76
2023/06/19 14:12:19;;;;;;;;;;;31.50;64.60;;;;;;5034600;28;19912;-75
2023/06/19 14:14:45;;;;;;;;;;;32.00;66.90;;;;;;5033989;28;20288;-76